sensor_id;sensor_type;location;lat;lon;timestamp;temperature;humidity
46590;DHT22;32313;48.722;9.362;2022-08-19T00:00:07;20.10;99.90
46590;DHT22;32313;48.722;9.362;2022-08-19T00:02:35;20.00;99.90
46590;DHT22;32313;48.722;9.362;2022-08-19T00:05:01;19.90;99.90
46590;DHT22;32313;48.722;9.362;2022-08-19T00:07:27;19.80;99.90
46590;DHT22;32313;48.722;9.362;2022-08-19T00:09:54;19.70;99.90
46590;DHT22;32313;48.722;9.362;2022-08-19T00:12:20;19.70;99.90
46590;DHT22;32313;48.722;9.362;2022-08-19T00:14:45;19.60;99.90
46590;DHT22;32313;48.722;9.362;2022-08-19T00:17:11;19.60;99.90
46590;DHT22;32313;48.722;9.362;2022-08-19T00:19:38;19.60;99.90
46590;DHT22;32313;48.722;9.362;2022-08-19T00:22:04;19.50;99.90
46590;DHT22;32313;48.722;9.362;2022-08-19T00:24:31;19.50;99.90
46590;DHT22;32313;48.722;9.362;2022-08-19T00:26:57;19.40;99.90
46590;DHT22;32313;48.722;9.362;2022-08-19T00:29:24;19.30;99.90
46590;DHT22;32313;48.722;9.362;2022-08-19T00:31:51;19.30;99.90
46590;DHT22;32313;48.722;9.362;2022-08-19T00:34:21;19.20;99.90
46590;DHT22;32313;48.722;9.362;2022-08-19T00:36:47;19.10;99.90
46590;DHT22;32313;48.722;9.362;2022-08-19T00:39:17;19.10;99.90
46590;DHT22;32313;48.722;9.362;2022-08-19T00:41:44;19.00;99.90
46590;DHT22;32313;48.722;9.362;2022-08-19T00:44:16;19.00;99.90
46590;DHT22;32313;48.722;9.362;2022-08-19T00:46:46;18.90;99.90
46590;DHT22;32313;48.722;9.362;2022-08-19T00:49:19;18.90;99.90
46590;DHT22;32313;48.722;9.362;2022-08-19T00:51:48;18.90;99.90
46590;DHT22;32313;48.722;9.362;2022-08-19T00:54:16;18.90;99.90
46590;DHT22;32313;48.722;9.362;2022-08-19T00:56:42;18.90;99.90
46590;DHT22;32313;48.722;9.362;2022-08-19T00:59:09;18.80;99.90
46590;DHT22;32313;48.722;9.362;2022-08-19T01:01:40;18.80;99.90
46590;DHT22;32313;48.722;9.362;2022-08-19T01:04:06;18.80;99.90
46590;DHT22;32313;48.722;9.362;2022-08-19T01:06:33;18.70;99.90
46590;DHT22;32313;48.722;9.362;2022-08-19T01:09:00;18.70;99.90
46590;DHT22;32313;48.722;9.362;2022-08-19T01:11:27;18.60;99.90
46590;DHT22;32313;48.722;9.362;2022-08-19T01:13:54;18.60;99.90
46590;DHT22;32313;48.722;9.362;2022-08-19T01:16:22;18.60;99.90
46590;DHT22;32313;48.722;9.362;2022-08-19T01:18:49;18.50;99.90
46590;DHT22;32313;48.722;9.362;2022-08-19T01:21:34;18.50;99.90
46590;DHT22;32313;48.722;9.362;2022-08-19T01:24:03;18.50;99.90
46590;DHT22;32313;48.722;9.362;2022-08-19T01:26:29;18.50;99.90
46590;DHT22;32313;48.722;9.362;2022-08-19T01:28:57;18.50;99.90
46590;DHT22;32313;48.722;9.362;2022-08-19T01:31:25;18.40;99.90
46590;DHT22;32313;48.722;9.362;2022-08-19T01:33:52;18.40;99.90
46590;DHT22;32313;48.722;9.362;2022-08-19T01:36:24;18.40;99.90
46590;DHT22;32313;48.722;9.362;2022-08-19T01:38:51;18.40;99.90
46590;DHT22;32313;48.722;9.362;2022-08-19T01:41:18;18.40;99.90
46590;DHT22;32313;48.722;9.362;2022-08-19T01:43:44;18.40;99.90
46590;DHT22;32313;48.722;9.362;2022-08-19T01:46:10;18.40;99.90
46590;DHT22;32313;48.722;9.362;2022-08-19T01:48:38;18.30;99.90
46590;DHT22;32313;48.722;9.362;2022-08-19T01:51:05;18.30;99.90
46590;DHT22;32313;48.722;9.362;2022-08-19T01:53:32;18.20;99.90
46590;DHT22;32313;48.722;9.362;2022-08-19T01:55:58;18.20;99.90
46590;DHT22;32313;48.722;9.362;2022-08-19T01:58:36;18.20;99.90
46590;DHT22;32313;48.722;9.362;2022-08-19T02:01:04;18.20;99.90
46590;DHT22;32313;48.722;9.362;2022-08-19T02:03:31;18.10;99.90
46590;DHT22;32313;48.722;9.362;2022-08-19T02:05:59;18.20;99.90
46590;DHT22;32313;48.722;9.362;2022-08-19T02:08:26;18.10;99.90
46590;DHT22;32313;48.722;9.362;2022-08-19T02:10:53;18.10;99.90
46590;DHT22;32313;48.722;9.362;2022-08-19T02:13:19;18.10;99.90
46590;DHT22;32313;48.722;9.362;2022-08-19T02:15:45;18.10;99.90
46590;DHT22;32313;48.722;9.362;2022-08-19T02:18:11;18.10;99.90
46590;DHT22;32313;48.722;9.362;2022-08-19T02:20:38;18.00;99.90
46590;DHT22;32313;48.722;9.362;2022-08-19T02:23:05;18.10;99.90
46590;DHT22;32313;48.722;9.362;2022-08-19T02:25:31;18.10;99.90
46590;DHT22;32313;48.722;9.362;2022-08-19T02:27:57;18.00;99.90
46590;DHT22;32313;48.722;9.362;2022-08-19T02:30:23;18.10;99.90
46590;DHT22;32313;48.722;9.362;2022-08-19T02:32:50;18.00;99.90
46590;DHT22;32313;48.722;9.362;2022-08-19T02:35:16;18.00;99.90
46590;DHT22;32313;48.722;9.362;2022-08-19T02:37:42;18.00;99.90
46590;DHT22;32313;48.722;9.362;2022-08-19T02:40:31;18.00;99.90
46590;DHT22;32313;48.722;9.362;2022-08-19T02:43:09;18.00;99.90
46590;DHT22;32313;48.722;9.362;2022-08-19T02:45:37;17.90;99.90
46590;DHT22;32313;48.722;9.362;2022-08-19T02:48:03;18.00;99.90
46590;DHT22;32313;48.722;9.362;2022-08-19T02:50:31;17.90;99.90
46590;DHT22;32313;48.722;9.362;2022-08-19T02:52:57;17.90;99.90
46590;DHT22;32313;48.722;9.362;2022-08-19T02:55:23;17.90;99.90
46590;DHT22;32313;48.722;9.362;2022-08-19T02:57:48;17.90;99.90
46590;DHT22;32313;48.722;9.362;2022-08-19T03:00:15;17.90;99.90
46590;DHT22;32313;48.722;9.362;2022-08-19T03:02:41;17.90;99.90
46590;DHT22;32313;48.722;9.362;2022-08-19T03:05:08;17.90;99.90
46590;DHT22;32313;48.722;9.362;2022-08-19T03:07:36;17.90;99.90
46590;DHT22;32313;48.722;9.362;2022-08-19T03:10:02;17.90;99.90
46590;DHT22;32313;48.722;9.362;2022-08-19T03:12:28;17.90;99.90
46590;DHT22;32313;48.722;9.362;2022-08-19T03:14:54;17.80;99.90
46590;DHT22;32313;48.722;9.362;2022-08-19T03:17:19;17.80;99.90
46590;DHT22;32313;48.722;9.362;2022-08-19T03:19:45;17.80;99.90
46590;DHT22;32313;48.722;9.362;2022-08-19T03:22:11;17.70;99.90
46590;DHT22;32313;48.722;9.362;2022-08-19T03:24:39;17.70;99.90
46590;DHT22;32313;48.722;9.362;2022-08-19T03:27:04;17.60;99.90
46590;DHT22;32313;48.722;9.362;2022-08-19T03:29:32;17.70;99.90
46590;DHT22;32313;48.722;9.362;2022-08-19T03:32:04;17.60;99.90
46590;DHT22;32313;48.722;9.362;2022-08-19T03:34:31;17.60;99.90
46590;DHT22;32313;48.722;9.362;2022-08-19T03:36:59;17.60;99.90
46590;DHT22;32313;48.722;9.362;2022-08-19T03:39:26;17.60;99.90
46590;DHT22;32313;48.722;9.362;2022-08-19T03:41:53;17.60;99.90
46590;DHT22;32313;48.722;9.362;2022-08-19T03:44:23;17.60;99.90
46590;DHT22;32313;48.722;9.362;2022-08-19T03:46:51;17.70;99.90
46590;DHT22;32313;48.722;9.362;2022-08-19T03:49:18;17.70;99.90
46590;DHT22;32313;48.722;9.362;2022-08-19T03:51:46;17.70;99.90
46590;DHT22;32313;48.722;9.362;2022-08-19T03:54:14;17.70;99.90
46590;DHT22;32313;48.722;9.362;2022-08-19T03:56:41;17.70;99.90
46590;DHT22;32313;48.722;9.362;2022-08-19T03:59:10;17.60;99.90
46590;DHT22;32313;48.722;9.362;2022-08-19T04:01:36;17.70;99.90
46590;DHT22;32313;48.722;9.362;2022-08-19T04:04:02;17.70;99.90
46590;DHT22;32313;48.722;9.362;2022-08-19T04:06:31;17.60;99.90
46590;DHT22;32313;48.722;9.362;2022-08-19T04:08:59;17.60;99.90
46590;DHT22;32313;48.722;9.362;2022-08-19T04:11:33;17.60;99.90
46590;DHT22;32313;48.722;9.362;2022-08-19T04:14:00;17.60;99.90
46590;DHT22;32313;48.722;9.362;2022-08-19T04:16:27;17.60;99.90
46590;DHT22;32313;48.722;9.362;2022-08-19T04:18:55;17.60;99.90
46590;DHT22;32313;48.722;9.362;2022-08-19T04:21:23;17.50;99.90
46590;DHT22;32313;48.722;9.362;2022-08-19T04:23:50;17.50;99.90
46590;DHT22;32313;48.722;9.362;2022-08-19T04:26:18;17.50;99.90
46590;DHT22;32313;48.722;9.362;2022-08-19T04:28:45;17.50;99.90
46590;DHT22;32313;48.722;9.362;2022-08-19T04:31:16;17.60;99.90
46590;DHT22;32313;48.722;9.362;2022-08-19T04:33:42;17.60;99.90
46590;DHT22;32313;48.722;9.362;2022-08-19T04:36:16;17.70;99.90
46590;DHT22;32313;48.722;9.362;2022-08-19T04:38:42;17.80;99.90
46590;DHT22;32313;48.722;9.362;2022-08-19T04:41:08;17.90;99.90
46590;DHT22;32313;48.722;9.362;2022-08-19T04:43:52;18.00;99.90
46590;DHT22;32313;48.722;9.362;2022-08-19T04:46:18;18.10;99.90
46590;DHT22;32313;48.722;9.362;2022-08-19T04:48:44;18.10;99.90
46590;DHT22;32313;48.722;9.362;2022-08-19T04:51:12;18.20;99.90
46590;DHT22;32313;48.722;9.362;2022-08-19T04:53:40;18.20;99.90
46590;DHT22;32313;48.722;9.362;2022-08-19T04:56:15;18.20;99.90
46590;DHT22;32313;48.722;9.362;2022-08-19T04:58:42;18.30;99.90
46590;DHT22;32313;48.722;9.362;2022-08-19T05:01:18;18.30;99.90
46590;DHT22;32313;48.722;9.362;2022-08-19T05:03:44;18.40;99.90
46590;DHT22;32313;48.722;9.362;2022-08-19T05:06:12;18.40;99.90
46590;DHT22;32313;48.722;9.362;2022-08-19T05:08:40;18.50;99.90
46590;DHT22;32313;48.722;9.362;2022-08-19T05:11:30;18.50;99.90
46590;DHT22;32313;48.722;9.362;2022-08-19T05:13:56;18.50;99.90
46590;DHT22;32313;48.722;9.362;2022-08-19T05:16:24;18.50;99.90
46590;DHT22;32313;48.722;9.362;2022-08-19T05:18:50;18.60;99.90
46590;DHT22;32313;48.722;9.362;2022-08-19T05:21:35;18.60;99.90
46590;DHT22;32313;48.722;9.362;2022-08-19T05:24:21;18.60;99.90
46590;DHT22;32313;48.722;9.362;2022-08-19T05:26:48;18.60;99.90
46590;DHT22;32313;48.722;9.362;2022-08-19T05:29:17;18.60;99.90
46590;DHT22;32313;48.722;9.362;2022-08-19T05:31:43;18.70;99.90
46590;DHT22;32313;48.722;9.362;2022-08-19T05:34:09;18.70;99.90
46590;DHT22;32313;48.722;9.362;2022-08-19T05:36:39;18.70;99.90
46590;DHT22;32313;48.722;9.362;2022-08-19T05:39:07;18.70;99.90
46590;DHT22;32313;48.722;9.362;2022-08-19T05:41:33;18.70;99.90
46590;DHT22;32313;48.722;9.362;2022-08-19T05:44:04;18.70;99.90
46590;DHT22;32313;48.722;9.362;2022-08-19T05:46:32;18.70;99.90
46590;DHT22;32313;48.722;9.362;2022-08-19T05:48:58;18.70;99.90
46590;DHT22;32313;48.722;9.362;2022-08-19T05:51:24;18.70;99.90
46590;DHT22;32313;48.722;9.362;2022-08-19T05:53:50;18.70;99.90
46590;DHT22;32313;48.722;9.362;2022-08-19T05:56:17;18.70;99.90
46590;DHT22;32313;48.722;9.362;2022-08-19T05:58:45;18.70;99.90
46590;DHT22;32313;48.722;9.362;2022-08-19T06:01:20;18.70;99.90
46590;DHT22;32313;48.722;9.362;2022-08-19T06:03:46;18.80;99.90
46590;DHT22;32313;48.722;9.362;2022-08-19T06:06:15;18.80;99.90
46590;DHT22;32313;48.722;9.362;2022-08-19T06:08:41;18.80;99.90
46590;DHT22;32313;48.722;9.362;2022-08-19T06:13:43;18.90;99.90
46590;DHT22;32313;48.722;9.362;2022-08-19T06:16:10;19.00;99.90
46590;DHT22;32313;48.722;9.362;2022-08-19T06:18:36;19.00;99.90
46590;DHT22;32313;48.722;9.362;2022-08-19T06:21:02;19.00;99.90
46590;DHT22;32313;48.722;9.362;2022-08-19T06:23:29;19.00;99.90
46590;DHT22;32313;48.722;9.362;2022-08-19T06:25:56;19.00;99.90
46590;DHT22;32313;48.722;9.362;2022-08-19T06:28:22;19.00;99.90
46590;DHT22;32313;48.722;9.362;2022-08-19T06:30:49;19.00;99.90
46590;DHT22;32313;48.722;9.362;2022-08-19T06:33:16;18.90;99.90
46590;DHT22;32313;48.722;9.362;2022-08-19T06:35:41;18.90;99.90
46590;DHT22;32313;48.722;9.362;2022-08-19T06:38:07;18.90;99.90
46590;DHT22;32313;48.722;9.362;2022-08-19T06:40:35;18.90;99.90
46590;DHT22;32313;48.722;9.362;2022-08-19T06:43:01;18.80;99.90
46590;DHT22;32313;48.722;9.362;2022-08-19T06:45:28;18.90;99.90
46590;DHT22;32313;48.722;9.362;2022-08-19T06:47:54;18.90;99.90
46590;DHT22;32313;48.722;9.362;2022-08-19T06:50:22;18.90;99.90
46590;DHT22;32313;48.722;9.362;2022-08-19T06:52:48;18.90;99.90
46590;DHT22;32313;48.722;9.362;2022-08-19T06:55:14;18.80;99.90
46590;DHT22;32313;48.722;9.362;2022-08-19T06:57:41;18.80;99.90
46590;DHT22;32313;48.722;9.362;2022-08-19T07:00:08;18.70;99.90
46590;DHT22;32313;48.722;9.362;2022-08-19T07:02:41;18.70;99.90
46590;DHT22;32313;48.722;9.362;2022-08-19T07:05:08;18.70;99.90
46590;DHT22;32313;48.722;9.362;2022-08-19T07:07:34;18.60;99.90
46590;DHT22;32313;48.722;9.362;2022-08-19T07:10:00;18.60;99.90
46590;DHT22;32313;48.722;9.362;2022-08-19T07:12:27;18.50;99.90
46590;DHT22;32313;48.722;9.362;2022-08-19T07:14:54;18.50;99.90
46590;DHT22;32313;48.722;9.362;2022-08-19T07:17:19;18.40;99.90
46590;DHT22;32313;48.722;9.362;2022-08-19T07:19:45;18.40;99.90
46590;DHT22;32313;48.722;9.362;2022-08-19T07:22:11;18.40;99.90
46590;DHT22;32313;48.722;9.362;2022-08-19T07:24:37;18.50;99.90
46590;DHT22;32313;48.722;9.362;2022-08-19T07:27:05;18.50;99.90
46590;DHT22;32313;48.722;9.362;2022-08-19T07:29:33;18.40;99.90
46590;DHT22;32313;48.722;9.362;2022-08-19T07:32:00;18.40;99.90
46590;DHT22;32313;48.722;9.362;2022-08-19T07:34:28;18.40;99.90
46590;DHT22;32313;48.722;9.362;2022-08-19T07:36:54;18.40;99.90
46590;DHT22;32313;48.722;9.362;2022-08-19T07:39:26;18.40;99.90
46590;DHT22;32313;48.722;9.362;2022-08-19T07:41:53;18.40;99.90
46590;DHT22;32313;48.722;9.362;2022-08-19T07:44:20;18.40;99.90
46590;DHT22;32313;48.722;9.362;2022-08-19T07:46:48;18.50;99.90
46590;DHT22;32313;48.722;9.362;2022-08-19T07:49:14;18.50;99.90
46590;DHT22;32313;48.722;9.362;2022-08-19T07:54:17;18.50;99.90
46590;DHT22;32313;48.722;9.362;2022-08-19T07:56:43;18.50;99.90
46590;DHT22;32313;48.722;9.362;2022-08-19T07:59:09;18.60;99.90
46590;DHT22;32313;48.722;9.362;2022-08-19T08:01:35;18.60;99.90
46590;DHT22;32313;48.722;9.362;2022-08-19T08:04:00;18.60;99.90
46590;DHT22;32313;48.722;9.362;2022-08-19T08:06:45;18.60;99.90
46590;DHT22;32313;48.722;9.362;2022-08-19T08:09:34;18.70;99.90
46590;DHT22;32313;48.722;9.362;2022-08-19T08:12:12;18.60;99.90
46590;DHT22;32313;48.722;9.362;2022-08-19T08:14:48;18.60;99.90
46590;DHT22;32313;48.722;9.362;2022-08-19T08:17:16;18.70;99.90
46590;DHT22;32313;48.722;9.362;2022-08-19T08:19:44;18.60;99.90
46590;DHT22;32313;48.722;9.362;2022-08-19T08:22:11;18.60;99.90
46590;DHT22;32313;48.722;9.362;2022-08-19T08:25:11;18.60;99.90
46590;DHT22;32313;48.722;9.362;2022-08-19T08:27:39;18.60;99.90
46590;DHT22;32313;48.722;9.362;2022-08-19T08:30:18;18.60;99.90
46590;DHT22;32313;48.722;9.362;2022-08-19T08:32:44;18.60;99.90
46590;DHT22;32313;48.722;9.362;2022-08-19T08:35:14;18.60;99.90
46590;DHT22;32313;48.722;9.362;2022-08-19T08:37:40;18.60;99.90
46590;DHT22;32313;48.722;9.362;2022-08-19T08:40:57;18.70;99.90
46590;DHT22;32313;48.722;9.362;2022-08-19T08:43:28;18.70;99.90
46590;DHT22;32313;48.722;9.362;2022-08-19T08:46:06;18.80;99.90
46590;DHT22;32313;48.722;9.362;2022-08-19T08:51:14;19.10;99.90
46590;DHT22;32313;48.722;9.362;2022-08-19T08:53:42;19.20;99.90
46590;DHT22;32313;48.722;9.362;2022-08-19T08:56:09;19.30;99.90
46590;DHT22;32313;48.722;9.362;2022-08-19T09:01:25;19.50;99.90
46590;DHT22;32313;48.722;9.362;2022-08-19T09:03:51;19.60;99.90
46590;DHT22;32313;48.722;9.362;2022-08-19T09:09:32;19.60;99.90
46590;DHT22;32313;48.722;9.362;2022-08-19T09:14:57;19.50;99.90
46590;DHT22;32313;48.722;9.362;2022-08-19T09:17:29;19.50;99.90
46590;DHT22;32313;48.722;9.362;2022-08-19T09:20:19;19.50;99.90
46590;DHT22;32313;48.722;9.362;2022-08-19T09:22:45;19.60;99.90
46590;DHT22;32313;48.722;9.362;2022-08-19T09:25:14;19.60;99.90
46590;DHT22;32313;48.722;9.362;2022-08-19T09:27:41;19.70;99.90
46590;DHT22;32313;48.722;9.362;2022-08-19T09:30:10;19.70;99.90
46590;DHT22;32313;48.722;9.362;2022-08-19T09:32:36;19.70;99.90
46590;DHT22;32313;48.722;9.362;2022-08-19T09:35:04;19.70;99.90
46590;DHT22;32313;48.722;9.362;2022-08-19T09:37:31;19.60;99.90
46590;DHT22;32313;48.722;9.362;2022-08-19T09:39:57;19.60;99.90
46590;DHT22;32313;48.722;9.362;2022-08-19T09:42:23;19.60;99.90
46590;DHT22;32313;48.722;9.362;2022-08-19T09:44:48;19.50;99.90
46590;DHT22;32313;48.722;9.362;2022-08-19T09:47:14;19.50;99.90
46590;DHT22;32313;48.722;9.362;2022-08-19T09:49:41;19.50;99.90
46590;DHT22;32313;48.722;9.362;2022-08-19T09:52:08;19.50;99.90
46590;DHT22;32313;48.722;9.362;2022-08-19T09:54:36;19.50;99.90
46590;DHT22;32313;48.722;9.362;2022-08-19T09:57:02;19.50;99.90
46590;DHT22;32313;48.722;9.362;2022-08-19T09:59:29;19.50;99.90
46590;DHT22;32313;48.722;9.362;2022-08-19T10:01:55;19.50;99.90
46590;DHT22;32313;48.722;9.362;2022-08-19T10:04:21;19.60;99.90
46590;DHT22;32313;48.722;9.362;2022-08-19T10:06:49;19.60;99.90
46590;DHT22;32313;48.722;9.362;2022-08-19T10:09:17;19.50;99.90
46590;DHT22;32313;48.722;9.362;2022-08-19T10:11:44;19.50;99.90
46590;DHT22;32313;48.722;9.362;2022-08-19T10:14:15;19.50;99.90
46590;DHT22;32313;48.722;9.362;2022-08-19T10:16:42;19.40;99.90
46590;DHT22;32313;48.722;9.362;2022-08-19T10:19:08;19.30;99.90
46590;DHT22;32313;48.722;9.362;2022-08-19T10:21:35;19.30;99.90
46590;DHT22;32313;48.722;9.362;2022-08-19T10:24:03;19.30;99.90
46590;DHT22;32313;48.722;9.362;2022-08-19T10:26:34;19.20;99.90
46590;DHT22;32313;48.722;9.362;2022-08-19T10:29:01;19.20;99.90
46590;DHT22;32313;48.722;9.362;2022-08-19T10:31:31;19.20;99.90
46590;DHT22;32313;48.722;9.362;2022-08-19T10:33:58;19.30;99.90
46590;DHT22;32313;48.722;9.362;2022-08-19T10:36:34;19.30;99.90
46590;DHT22;32313;48.722;9.362;2022-08-19T10:39:04;19.30;99.90
46590;DHT22;32313;48.722;9.362;2022-08-19T10:41:33;19.30;99.90
46590;DHT22;32313;48.722;9.362;2022-08-19T10:44:05;19.30;99.90
46590;DHT22;32313;48.722;9.362;2022-08-19T10:46:32;19.20;99.90
46590;DHT22;32313;48.722;9.362;2022-08-19T10:49:00;19.20;99.90
46590;DHT22;32313;48.722;9.362;2022-08-19T10:51:27;19.20;99.90
46590;DHT22;32313;48.722;9.362;2022-08-19T10:54:12;19.10;99.90
46590;DHT22;32313;48.722;9.362;2022-08-19T10:56:38;19.10;99.90
46590;DHT22;32313;48.722;9.362;2022-08-19T10:59:25;19.00;99.90
46590;DHT22;32313;48.722;9.362;2022-08-19T11:01:53;19.00;99.90
46590;DHT22;32313;48.722;9.362;2022-08-19T11:04:19;18.90;99.90
46590;DHT22;32313;48.722;9.362;2022-08-19T11:06:47;18.80;99.90
46590;DHT22;32313;48.722;9.362;2022-08-19T11:09:15;18.80;99.90
46590;DHT22;32313;48.722;9.362;2022-08-19T11:11:42;18.80;99.90
46590;DHT22;32313;48.722;9.362;2022-08-19T11:14:12;18.70;99.90
46590;DHT22;32313;48.722;9.362;2022-08-19T11:16:40;18.70;99.90
46590;DHT22;32313;48.722;9.362;2022-08-19T11:19:07;18.70;99.90
46590;DHT22;32313;48.722;9.362;2022-08-19T11:21:39;18.70;99.90
46590;DHT22;32313;48.722;9.362;2022-08-19T11:24:15;18.70;99.90
46590;DHT22;32313;48.722;9.362;2022-08-19T11:26:43;18.70;99.90
46590;DHT22;32313;48.722;9.362;2022-08-19T11:29:10;18.60;99.90
46590;DHT22;32313;48.722;9.362;2022-08-19T11:31:44;18.60;99.90
46590;DHT22;32313;48.722;9.362;2022-08-19T11:34:12;18.70;99.90
46590;DHT22;32313;48.722;9.362;2022-08-19T11:36:41;18.80;99.90
46590;DHT22;32313;48.722;9.362;2022-08-19T11:39:10;18.80;99.90
46590;DHT22;32313;48.722;9.362;2022-08-19T11:41:36;18.90;99.90
46590;DHT22;32313;48.722;9.362;2022-08-19T11:44:02;18.90;99.90
46590;DHT22;32313;48.722;9.362;2022-08-19T11:46:28;19.00;99.90
46590;DHT22;32313;48.722;9.362;2022-08-19T11:48:59;19.00;99.90
46590;DHT22;32313;48.722;9.362;2022-08-19T11:51:27;18.90;99.90
46590;DHT22;32313;48.722;9.362;2022-08-19T11:53:54;19.00;99.90
46590;DHT22;32313;48.722;9.362;2022-08-19T11:56:22;19.10;99.90
46590;DHT22;32313;48.722;9.362;2022-08-19T11:58:48;19.20;99.90
46590;DHT22;32313;48.722;9.362;2022-08-19T12:01:16;19.30;99.90
46590;DHT22;32313;48.722;9.362;2022-08-19T12:03:46;19.30;99.90
46590;DHT22;32313;48.722;9.362;2022-08-19T12:06:21;19.20;99.90
46590;DHT22;32313;48.722;9.362;2022-08-19T12:08:55;19.20;99.90
46590;DHT22;32313;48.722;9.362;2022-08-19T12:11:21;19.20;99.90
46590;DHT22;32313;48.722;9.362;2022-08-19T12:13:47;19.30;99.90
46590;DHT22;32313;48.722;9.362;2022-08-19T12:16:25;19.30;99.90
46590;DHT22;32313;48.722;9.362;2022-08-19T12:18:52;19.30;99.90
46590;DHT22;32313;48.722;9.362;2022-08-19T12:21:23;19.30;99.90
46590;DHT22;32313;48.722;9.362;2022-08-19T12:23:50;19.20;99.90
46590;DHT22;32313;48.722;9.362;2022-08-19T12:26:17;19.20;99.90
46590;DHT22;32313;48.722;9.362;2022-08-19T12:28:43;19.10;99.90
46590;DHT22;32313;48.722;9.362;2022-08-19T12:31:10;19.00;99.90
46590;DHT22;32313;48.722;9.362;2022-08-19T12:33:41;19.00;99.90
46590;DHT22;32313;48.722;9.362;2022-08-19T12:36:09;19.00;99.90
46590;DHT22;32313;48.722;9.362;2022-08-19T12:38:36;19.00;99.90
46590;DHT22;32313;48.722;9.362;2022-08-19T12:41:02;19.00;99.90
46590;DHT22;32313;48.722;9.362;2022-08-19T12:43:30;19.00;99.90
46590;DHT22;32313;48.722;9.362;2022-08-19T12:45:56;19.10;99.90
46590;DHT22;32313;48.722;9.362;2022-08-19T12:48:22;19.10;99.90
46590;DHT22;32313;48.722;9.362;2022-08-19T12:50:48;19.20;99.90
46590;DHT22;32313;48.722;9.362;2022-08-19T12:53:14;19.20;99.90
46590;DHT22;32313;48.722;9.362;2022-08-19T12:55:40;19.20;99.90
46590;DHT22;32313;48.722;9.362;2022-08-19T12:58:06;19.20;99.90
46590;DHT22;32313;48.722;9.362;2022-08-19T13:00:32;19.20;99.90
46590;DHT22;32313;48.722;9.362;2022-08-19T13:02:59;19.20;99.90
46590;DHT22;32313;48.722;9.362;2022-08-19T13:05:28;19.10;99.90
46590;DHT22;32313;48.722;9.362;2022-08-19T13:07:56;19.00;99.90
46590;DHT22;32313;48.722;9.362;2022-08-19T13:10:25;19.00;99.90
46590;DHT22;32313;48.722;9.362;2022-08-19T13:12:53;18.90;99.90
46590;DHT22;32313;48.722;9.362;2022-08-19T13:15:21;18.80;99.90
46590;DHT22;32313;48.722;9.362;2022-08-19T13:17:48;18.70;99.90
46590;DHT22;32313;48.722;9.362;2022-08-19T13:20:16;18.60;99.90
46590;DHT22;32313;48.722;9.362;2022-08-19T13:22:42;18.50;99.90
46590;DHT22;32313;48.722;9.362;2022-08-19T13:25:10;18.50;99.90
46590;DHT22;32313;48.722;9.362;2022-08-19T13:27:36;18.50;99.90
46590;DHT22;32313;48.722;9.362;2022-08-19T13:30:04;18.40;99.90
46590;DHT22;32313;48.722;9.362;2022-08-19T13:32:50;18.50;99.90
46590;DHT22;32313;48.722;9.362;2022-08-19T13:35:34;18.40;99.90
46590;DHT22;32313;48.722;9.362;2022-08-19T13:38:00;18.50;99.90
46590;DHT22;32313;48.722;9.362;2022-08-19T13:40:31;18.40;99.90
46590;DHT22;32313;48.722;9.362;2022-08-19T13:43:00;18.50;99.90
46590;DHT22;32313;48.722;9.362;2022-08-19T13:45:27;18.50;99.90
46590;DHT22;32313;48.722;9.362;2022-08-19T13:47:55;18.40;99.90
46590;DHT22;32313;48.722;9.362;2022-08-19T13:50:24;18.40;99.90
46590;DHT22;32313;48.722;9.362;2022-08-19T13:52:54;18.40;99.90
46590;DHT22;32313;48.722;9.362;2022-08-19T13:55:21;18.40;99.90
46590;DHT22;32313;48.722;9.362;2022-08-19T13:57:55;18.40;99.90
46590;DHT22;32313;48.722;9.362;2022-08-19T14:00:24;18.50;99.90
46590;DHT22;32313;48.722;9.362;2022-08-19T14:02:52;18.50;99.90
46590;DHT22;32313;48.722;9.362;2022-08-19T14:05:19;18.50;99.90
46590;DHT22;32313;48.722;9.362;2022-08-19T14:07:45;18.50;99.90
46590;DHT22;32313;48.722;9.362;2022-08-19T14:10:12;18.50;99.90
46590;DHT22;32313;48.722;9.362;2022-08-19T14:12:39;18.40;99.90
46590;DHT22;32313;48.722;9.362;2022-08-19T14:15:07;18.40;99.90
46590;DHT22;32313;48.722;9.362;2022-08-19T14:17:33;18.40;99.90
46590;DHT22;32313;48.722;9.362;2022-08-19T14:20:02;18.30;99.90
46590;DHT22;32313;48.722;9.362;2022-08-19T14:22:33;18.30;99.90
46590;DHT22;32313;48.722;9.362;2022-08-19T14:24:59;18.40;99.90
46590;DHT22;32313;48.722;9.362;2022-08-19T14:27:25;18.40;99.90
46590;DHT22;32313;48.722;9.362;2022-08-19T14:29:51;18.40;99.90
46590;DHT22;32313;48.722;9.362;2022-08-19T14:32:17;18.40;99.90
46590;DHT22;32313;48.722;9.362;2022-08-19T14:34:43;18.40;99.90
46590;DHT22;32313;48.722;9.362;2022-08-19T14:37:12;18.40;99.90
46590;DHT22;32313;48.722;9.362;2022-08-19T14:39:40;18.50;99.90
46590;DHT22;32313;48.722;9.362;2022-08-19T14:42:07;18.50;99.90
46590;DHT22;32313;48.722;9.362;2022-08-19T14:44:34;18.50;99.90
46590;DHT22;32313;48.722;9.362;2022-08-19T14:47:00;18.50;99.90
46590;DHT22;32313;48.722;9.362;2022-08-19T14:49:25;18.60;99.90
46590;DHT22;32313;48.722;9.362;2022-08-19T14:51:51;18.60;99.90
46590;DHT22;32313;48.722;9.362;2022-08-19T14:54:17;18.80;99.90
46590;DHT22;32313;48.722;9.362;2022-08-19T14:56:44;18.90;99.90
46590;DHT22;32313;48.722;9.362;2022-08-19T14:59:09;19.00;99.90
46590;DHT22;32313;48.722;9.362;2022-08-19T15:01:35;19.10;99.90
46590;DHT22;32313;48.722;9.362;2022-08-19T15:04:01;19.20;99.90
46590;DHT22;32313;48.722;9.362;2022-08-19T15:06:28;19.20;99.90
46590;DHT22;32313;48.722;9.362;2022-08-19T15:08:55;19.20;99.90
46590;DHT22;32313;48.722;9.362;2022-08-19T15:11:23;19.30;99.90
46590;DHT22;32313;48.722;9.362;2022-08-19T15:13:50;19.30;99.90
46590;DHT22;32313;48.722;9.362;2022-08-19T15:16:17;19.30;99.90
46590;DHT22;32313;48.722;9.362;2022-08-19T15:18:44;19.30;99.90
46590;DHT22;32313;48.722;9.362;2022-08-19T15:21:11;19.30;99.90
46590;DHT22;32313;48.722;9.362;2022-08-19T15:23:44;19.30;99.90
46590;DHT22;32313;48.722;9.362;2022-08-19T15:26:11;19.20;99.90
46590;DHT22;32313;48.722;9.362;2022-08-19T15:28:37;19.20;99.90
46590;DHT22;32313;48.722;9.362;2022-08-19T15:31:03;19.20;99.90
46590;DHT22;32313;48.722;9.362;2022-08-19T15:33:34;19.20;99.90
46590;DHT22;32313;48.722;9.362;2022-08-19T15:36:04;19.20;99.90
46590;DHT22;32313;48.722;9.362;2022-08-19T15:38:31;19.20;99.90
46590;DHT22;32313;48.722;9.362;2022-08-19T15:41:02;19.20;99.90
46590;DHT22;32313;48.722;9.362;2022-08-19T15:43:49;19.20;99.90
46590;DHT22;32313;48.722;9.362;2022-08-19T15:46:18;19.20;99.90
46590;DHT22;32313;48.722;9.362;2022-08-19T15:48:44;19.30;99.90
46590;DHT22;32313;48.722;9.362;2022-08-19T15:51:11;19.30;99.90
46590;DHT22;32313;48.722;9.362;2022-08-19T15:53:36;19.20;99.90